createdAt,value
2023-05-14T00:01:03.357Z,71.41
2023-05-14T00:04:07.495Z,71.30
2023-05-14T00:07:11.988Z,71.36
2023-05-14T00:10:17.758Z,71.56
2023-05-14T00:13:21.861Z,71.79
2023-05-14T00:16:26.002Z,71.85
2023-05-14T00:19:30.102Z,72.09
2023-05-14T00:22:35.062Z,72.14
2023-05-14T00:25:39.306Z,72.49
2023-05-14T00:28:43.290Z,72.09
2023-05-14T00:31:47.309Z,72.06
2023-05-14T00:34:51.415Z,71.96
2023-05-14T00:37:55.627Z,72.02
2023-05-14T00:40:59.661Z,71.71
2023-05-14T00:44:04.168Z,71.77
2023-05-14T00:47:08.764Z,71.62
2023-05-14T00:50:14.886Z,71.54
2023-05-14T00:53:19.821Z,71.90
2023-05-14T00:56:24.940Z,71.85
2023-05-14T00:59:29.065Z,71.74
2023-05-14T01:02:33.125Z,71.73
2023-05-14T01:06:02.910Z,71.61
2023-05-14T01:09:20.623Z,71.81
2023-05-14T01:12:36.634Z,72.13
2023-05-14T01:15:45.421Z,72.14
2023-05-14T01:18:51.467Z,72.23
2023-05-14T01:21:55.509Z,72.08
2023-05-14T01:24:59.558Z,72.04
2023-05-14T01:28:13.513Z,71.95
2023-05-14T01:31:25.331Z,71.77
2023-05-14T01:34:31.476Z,71.84
2023-05-14T01:37:37.929Z,71.82
2023-05-14T01:40:45.645Z,71.86
2023-05-14T01:43:50.065Z,71.94
2023-05-14T01:46:54.080Z,71.72
2023-05-14T01:49:58.073Z,71.79
2023-05-14T01:53:02.133Z,71.68
2023-05-14T01:56:06.337Z,71.89
2023-05-14T01:59:10.558Z,71.76
2023-05-14T02:02:14.554Z,71.76
2023-05-14T02:05:19.304Z,71.88
2023-05-14T02:08:24.076Z,72.04
2023-05-14T02:11:28.093Z,71.98
2023-05-14T02:14:32.375Z,71.94
2023-05-14T02:17:36.846Z,71.94
2023-05-14T02:20:41.327Z,71.75
2023-05-14T02:23:45.296Z,71.90
2023-05-14T02:26:49.352Z,72.23
2023-05-14T02:29:53.479Z,72.63
2023-05-14T02:32:58.197Z,72.46
2023-05-14T02:36:02.234Z,72.73
2023-05-14T02:39:06.776Z,72.70
2023-05-14T02:42:10.886Z,72.56
2023-05-14T02:45:14.887Z,72.59
2023-05-14T02:48:19.013Z,72.58
2023-05-14T02:51:23.741Z,72.40
2023-05-14T02:54:27.773Z,72.84
2023-05-14T02:57:31.901Z,72.89
2023-05-14T03:00:36.121Z,72.61
2023-05-14T03:03:40.831Z,72.81
2023-05-14T03:06:45.156Z,73.03
2023-05-14T03:09:49.183Z,73.28
2023-05-14T03:12:53.286Z,73.32
2023-05-14T03:15:57.403Z,73.70
2023-05-14T03:19:01.489Z,73.54
2023-05-14T03:22:05.643Z,73.52
2023-05-14T03:25:10.071Z,73.86
2023-05-14T03:28:14.085Z,73.99
2023-05-14T03:31:18.250Z,73.97
2023-05-14T03:34:22.422Z,74.07
2023-05-14T03:37:26.455Z,73.92
2023-05-14T03:40:30.761Z,74.36
2023-05-14T03:43:35.290Z,74.50
2023-05-14T03:46:39.408Z,74.25
2023-05-14T03:49:43.547Z,74.56
2023-05-14T03:52:48.346Z,74.79
2023-05-14T03:55:52.501Z,74.66
2023-05-14T03:58:56.601Z,74.58
2023-05-14T04:02:00.634Z,74.82
2023-05-14T04:05:05.153Z,74.82
2023-05-14T04:08:09.252Z,74.68
2023-05-14T04:11:13.271Z,74.73
2023-05-14T04:14:17.296Z,74.75
2023-05-14T04:17:22.651Z,74.90
2023-05-14T04:20:27.331Z,75.13
2023-05-14T04:23:32.097Z,75.03
2023-05-14T04:26:36.223Z,75.19
2023-05-14T04:29:40.434Z,75.04
2023-05-14T04:32:44.663Z,75.25
2023-05-14T04:35:48.746Z,75.27
2023-05-14T04:38:52.798Z,75.06
2023-05-14T04:41:56.806Z,75.00
2023-05-14T04:45:01.134Z,75.21
2023-05-14T04:48:07.839Z,75.05
2023-05-14T04:51:12.140Z,74.99
2023-05-14T04:54:16.173Z,75.06
2023-05-14T04:57:20.261Z,75.08
2023-05-14T05:00:24.730Z,74.59
2023-05-14T05:03:29.067Z,74.26
2023-05-14T05:06:33.245Z,73.38
2023-05-14T05:09:37.456Z,72.54
2023-05-14T05:12:41.778Z,72.28
2023-05-14T05:15:46.147Z,73.02
2023-05-14T05:18:50.358Z,72.09
2023-05-14T05:21:57.416Z,72.69
2023-05-14T05:25:01.404Z,72.75
2023-05-14T05:28:05.373Z,72.55
2023-05-14T05:31:09.500Z,72.56
2023-05-14T05:34:13.584Z,72.71
2023-05-14T05:37:17.812Z,72.00
2023-05-14T05:40:22.174Z,72.14
2023-05-14T05:43:26.214Z,71.99
2023-05-14T05:46:30.420Z,71.85
2023-05-14T05:49:34.677Z,71.23
2023-05-14T05:52:39.483Z,70.59
2023-05-14T05:55:43.537Z,70.06
2023-05-14T05:58:47.966Z,69.56
2023-05-14T06:01:51.980Z,67.81
2023-05-14T06:04:56.204Z,67.73
2023-05-14T06:08:00.210Z,67.81
2023-05-14T06:11:04.740Z,69.60
2023-05-14T06:14:08.621Z,70.31
2023-05-14T06:17:12.553Z,69.14
2023-05-14T06:20:16.695Z,69.55
2023-05-14T06:23:20.900Z,67.32
2023-05-14T06:26:25.021Z,66.00
2023-05-14T06:29:29.042Z,65.16
2023-05-14T06:32:33.043Z,64.72
2023-05-14T06:35:37.275Z,64.37
2023-05-14T06:38:41.395Z,62.69
2023-05-14T06:41:45.601Z,65.38
2023-05-14T06:44:51.776Z,66.36
2023-05-14T06:47:55.957Z,62.27
2023-05-14T06:51:00.032Z,60.25
2023-05-14T06:54:04.024Z,59.10
2023-05-14T06:57:08.045Z,59.92
2023-05-14T07:00:14.331Z,58.19
2023-05-14T07:03:18.326Z,56.96
2023-05-14T07:06:22.853Z,55.22
2023-05-14T07:09:26.871Z,54.77
2023-05-14T07:12:30.821Z,54.41
2023-05-14T07:15:34.799Z,56.27
2023-05-14T07:18:39.142Z,52.57
2023-05-14T07:21:43.032Z,50.95
2023-05-14T07:24:47.253Z,49.41
2023-05-14T07:27:51.281Z,49.17
2023-05-14T07:30:55.714Z,50.07
2023-05-14T07:33:59.711Z,48.30
2023-05-14T07:37:03.933Z,49.73
2023-05-14T07:40:08.796Z,47.09
2023-05-14T07:43:12.884Z,47.11
2023-05-14T07:46:16.908Z,46.82
2023-05-14T07:49:21.222Z,46.94
2023-05-14T07:52:25.548Z,45.78
2023-05-14T07:55:29.664Z,44.49
2023-05-14T07:58:33.687Z,43.24
2023-05-14T08:01:39.345Z,42.88
2023-05-14T08:04:44.248Z,43.50
2023-05-14T08:07:48.293Z,43.66
2023-05-14T08:10:52.298Z,43.88
2023-05-14T08:13:56.528Z,43.99
2023-05-14T08:17:00.802Z,42.64
2023-05-14T08:20:07.561Z,42.18
2023-05-14T08:23:11.640Z,42.06
2023-05-14T08:26:15.757Z,41.29
2023-05-14T08:29:19.784Z,41.15
2023-05-14T08:32:24.296Z,40.33
2023-05-14T08:35:28.532Z,39.10
2023-05-14T08:38:32.750Z,39.49
2023-05-14T08:41:37.846Z,39.74
2023-05-14T08:44:52.544Z,39.09
2023-05-14T08:47:58.621Z,38.73
2023-05-14T08:51:03.497Z,38.16
2023-05-14T08:54:07.778Z,37.74
2023-05-14T08:57:13.228Z,37.32
2023-05-14T09:00:18.780Z,37.14
2023-05-14T09:03:23.949Z,36.09
2023-05-14T09:06:28.410Z,35.94
2023-05-14T09:09:33.473Z,35.82
2023-05-14T09:12:37.714Z,36.17
2023-05-14T09:15:41.812Z,36.22
2023-05-14T09:18:46.083Z,35.49
2023-05-14T09:21:50.663Z,34.77
2023-05-14T09:25:05.815Z,35.21
2023-05-14T09:28:09.794Z,35.17
2023-05-14T09:31:13.802Z,34.46
2023-05-14T09:34:25.765Z,34.23
2023-05-14T09:37:30.110Z,34.25
2023-05-14T09:40:34.130Z,34.05
2023-05-14T09:43:38.343Z,33.42
2023-05-14T09:46:42.362Z,33.61
2023-05-14T09:49:48.978Z,33.37
2023-05-14T09:52:55.750Z,33.44
2023-05-14T09:55:59.848Z,32.80
2023-05-14T09:59:04.340Z,32.63
2023-05-14T10:02:12.779Z,31.79
2023-05-14T10:05:17.744Z,32.07
2023-05-14T10:08:30.833Z,32.32
2023-05-14T10:11:38.117Z,32.19
2023-05-14T10:14:49.635Z,32.79
2023-05-14T10:17:59.083Z,32.35
2023-05-14T10:21:07.912Z,32.87
2023-05-14T10:24:13.150Z,32.71
2023-05-14T10:27:17.606Z,33.06
2023-05-14T10:30:25.616Z,32.94
2023-05-14T10:33:30.215Z,32.32
2023-05-14T10:36:34.436Z,31.96
2023-05-14T10:39:44.601Z,32.75
2023-05-14T10:42:48.724Z,31.75
2023-05-14T10:45:52.732Z,31.44
2023-05-14T10:48:56.950Z,30.32
2023-05-14T10:52:01.847Z,30.55
2023-05-14T10:55:12.772Z,30.22
2023-05-14T10:58:18.123Z,29.84
2023-05-14T11:01:24.262Z,30.36
2023-05-14T11:04:28.395Z,30.11
2023-05-14T11:07:40.602Z,29.20
2023-05-14T11:10:47.011Z,29.74
2023-05-14T11:13:52.530Z,29.75
2023-05-14T11:16:57.735Z,29.97
2023-05-14T11:20:02.301Z,29.57
2023-05-14T11:23:06.312Z,29.56
2023-05-14T11:26:11.383Z,29.41
2023-05-14T11:29:15.584Z,29.01
2023-05-14T11:32:20.289Z,29.02
2023-05-14T11:35:24.852Z,29.08
2023-05-14T11:38:28.749Z,29.00
2023-05-14T11:41:33.174Z,28.54
2023-05-14T11:44:37.086Z,28.37
2023-05-14T11:47:42.138Z,28.74
2023-05-14T11:50:51.177Z,28.35
2023-05-14T11:53:55.181Z,28.03
2023-05-14T11:57:01.950Z,27.87
2023-05-14T12:00:09.673Z,28.34
2023-05-14T12:03:13.885Z,27.81
2023-05-14T12:06:18.302Z,26.91
2023-05-14T12:09:23.146Z,27.19
2023-05-14T12:12:27.252Z,27.26
2023-05-14T12:15:31.269Z,27.32
2023-05-14T12:18:35.722Z,26.94
2023-05-14T12:21:40.736Z,26.48
2023-05-14T12:24:54.115Z,26.90
2023-05-14T12:27:58.186Z,26.87
2023-05-14T12:31:02.837Z,27.25
2023-05-14T12:34:06.755Z,27.46
2023-05-14T12:37:10.715Z,27.88
2023-05-14T12:40:14.777Z,27.45
2023-05-14T12:43:19.364Z,27.03
2023-05-14T12:46:23.731Z,27.06
2023-05-14T12:49:28.046Z,26.89
2023-05-14T12:55:38.939Z,26.91
2023-05-14T12:58:43.148Z,27.32
2023-05-14T13:01:47.148Z,26.96
2023-05-14T13:04:51.075Z,26.99
2023-05-14T13:07:55.107Z,27.30
2023-05-14T13:10:59.125Z,26.09
2023-05-14T13:14:03.838Z,25.95
2023-05-14T13:17:08.281Z,25.21
2023-05-14T13:20:12.311Z,24.81
2023-05-14T13:23:16.317Z,24.79
2023-05-14T13:26:20.310Z,24.71
2023-05-14T13:29:24.403Z,24.12
2023-05-14T13:32:28.371Z,23.39
2023-05-14T13:35:34.699Z,22.97
2023-05-14T13:38:39.081Z,22.73
2023-05-14T13:41:43.384Z,22.89
2023-05-14T13:44:47.390Z,22.36
2023-05-14T13:47:51.836Z,22.03
2023-05-14T13:50:56.023Z,21.68
2023-05-14T13:53:59.946Z,21.43
2023-05-14T13:57:04.455Z,20.61
2023-05-14T14:00:09.607Z,20.89
2023-05-14T14:03:13.754Z,20.58
2023-05-14T14:06:17.605Z,20.18
2023-05-14T14:09:22.077Z,20.35
2023-05-14T14:12:26.874Z,20.63
2023-05-14T14:15:30.929Z,20.23
2023-05-14T14:18:35.157Z,20.26
2023-05-14T14:21:42.745Z,20.35
2023-05-14T14:24:46.693Z,19.99
2023-05-14T14:27:51.173Z,20.63
2023-05-14T14:30:55.296Z,20.40
2023-05-14T14:33:59.112Z,20.24
2023-05-14T14:37:03.122Z,20.32
2023-05-14T14:40:10.532Z,20.75
2023-05-14T14:43:14.573Z,20.87
2023-05-14T14:46:18.846Z,21.26
2023-05-14T14:49:23.508Z,21.84
2023-05-14T14:52:28.314Z,22.08
2023-05-14T14:55:32.351Z,22.61
2023-05-14T14:58:36.775Z,22.94
2023-05-14T15:01:40.966Z,23.38
2023-05-14T15:04:45.118Z,23.52
2023-05-14T15:07:49.019Z,23.78
2023-05-14T15:10:53.456Z,24.42
2023-05-14T15:13:57.529Z,25.07
2023-05-14T15:17:01.723Z,25.04
2023-05-14T15:20:07.492Z,25.27
2023-05-14T15:23:11.768Z,25.31
2023-05-14T15:26:15.803Z,25.42
2023-05-14T15:29:20.222Z,25.51
2023-05-14T15:32:26.592Z,25.72
2023-05-14T15:35:30.703Z,25.99
2023-05-14T15:38:34.850Z,25.99
2023-05-14T15:41:39.045Z,26.51
2023-05-14T15:44:43.162Z,26.63
2023-05-14T15:47:47.190Z,26.83
2023-05-14T15:50:51.703Z,27.08
2023-05-14T15:53:55.818Z,27.39
2023-05-14T15:56:59.746Z,27.79
2023-05-14T16:00:14.609Z,28.23
2023-05-14T16:03:18.788Z,28.00
2023-05-14T16:06:22.925Z,27.93
2023-05-14T16:09:27.146Z,28.78
2023-05-14T16:12:31.158Z,29.10
2023-05-14T16:15:35.298Z,28.73
2023-05-14T16:18:40.961Z,28.67
2023-05-14T16:21:45.070Z,28.78
2023-05-14T16:24:48.984Z,28.71
2023-05-14T16:27:53.217Z,28.44
2023-05-14T16:30:57.316Z,28.77
2023-05-14T16:34:01.335Z,28.40
2023-05-14T16:37:05.359Z,28.33
2023-05-14T16:40:11.907Z,28.50
2023-05-14T16:43:15.936Z,28.44
2023-05-14T16:46:20.391Z,28.73
2023-05-14T16:49:24.481Z,28.90
2023-05-14T16:52:28.655Z,28.83
2023-05-14T16:55:32.576Z,28.94
2023-05-14T16:58:36.628Z,29.18
2023-05-14T17:01:41.993Z,29.43
2023-05-14T17:04:46.243Z,29.64
2023-05-14T17:07:50.219Z,29.74
2023-05-14T17:10:54.104Z,29.94
2023-05-14T17:13:57.012Z,30.33
2023-05-14T17:16:58.776Z,29.92
2023-05-14T17:20:05.931Z,30.00
2023-05-14T17:23:10.092Z,30.02
2023-05-14T17:26:14.079Z,30.44
2023-05-14T17:29:18.025Z,30.75
2023-05-14T17:32:22.103Z,31.07
2023-05-14T17:35:26.248Z,31.23
2023-05-14T17:38:30.465Z,31.13
2023-05-14T17:41:34.584Z,31.03
2023-05-14T17:44:38.602Z,31.36
2023-05-14T17:47:42.548Z,32.83
2023-05-14T17:50:46.627Z,32.53
2023-05-14T17:53:51.176Z,32.41
2023-05-14T17:56:55.698Z,33.56
2023-05-14T17:59:59.714Z,33.83
2023-05-14T18:03:03.825Z,34.11
2023-05-14T18:06:08.379Z,34.82
2023-05-14T18:09:12.385Z,35.01
2023-05-14T18:12:16.412Z,35.99
2023-05-14T18:15:20.513Z,36.46
2023-05-14T18:18:24.503Z,36.78
2023-05-14T18:21:28.762Z,37.74
2023-05-14T18:24:32.792Z,38.60
2023-05-14T18:27:39.544Z,38.48
2023-05-14T18:30:43.695Z,38.95
2023-05-14T18:33:47.891Z,39.21
2023-05-14T18:36:52.417Z,39.20
2023-05-14T18:39:56.434Z,39.56
2023-05-14T18:43:00.564Z,39.82
2023-05-14T18:46:04.560Z,40.33
2023-05-14T18:49:08.587Z,41.52
2023-05-14T18:52:13.253Z,41.86
2023-05-14T18:55:17.346Z,42.37
2023-05-14T18:58:21.352Z,42.26
2023-05-14T19:01:25.869Z,42.78
2023-05-14T19:04:33.326Z,43.44
2023-05-14T19:07:38.626Z,43.25
2023-05-14T19:10:42.944Z,43.39
2023-05-14T19:13:48.086Z,43.47
2023-05-14T19:16:52.203Z,43.77
2023-05-14T19:19:56.217Z,43.86
2023-05-14T19:23:00.235Z,43.15
2023-05-14T19:26:04.256Z,43.47
2023-05-14T19:29:08.265Z,44.90
2023-05-14T19:32:12.298Z,44.99
2023-05-14T19:35:16.702Z,45.03
2023-05-14T19:38:21.242Z,45.04
2023-05-14T19:41:26.082Z,44.93
2023-05-14T19:44:31.203Z,44.93
2023-05-14T19:47:35.173Z,44.79
2023-05-14T19:50:39.202Z,45.14
2023-05-14T19:53:43.241Z,45.07
2023-05-14T19:56:47.396Z,45.85
2023-05-14T19:59:51.387Z,45.48
2023-05-14T20:03:00.004Z,45.56
2023-05-14T20:06:04.242Z,45.16
2023-05-14T20:09:08.487Z,45.22
2023-05-14T20:12:13.383Z,46.20
2023-05-14T20:15:17.412Z,46.36
2023-05-14T20:18:21.425Z,46.49
2023-05-14T20:21:25.747Z,46.59
2023-05-14T20:24:29.751Z,46.09
2023-05-14T20:27:33.882Z,46.31
2023-05-14T20:30:38.042Z,46.00
2023-05-14T20:33:42.135Z,45.62
2023-05-14T20:36:46.251Z,45.98
2023-05-14T20:39:50.708Z,45.91
2023-05-14T20:42:54.907Z,45.68
2023-05-14T20:45:59.228Z,45.99
2023-05-14T20:49:03.327Z,46.18
2023-05-14T20:52:07.207Z,46.26
2023-05-14T20:55:11.565Z,46.12
2023-05-14T20:58:15.576Z,46.45
2023-05-14T21:01:19.642Z,47.26
2023-05-14T21:04:23.906Z,47.11
2023-05-14T21:07:28.874Z,47.10
2023-05-14T21:10:33.178Z,47.58
2023-05-14T21:13:37.189Z,47.55
2023-05-14T21:16:41.403Z,47.77
2023-05-14T21:19:45.531Z,47.49
2023-05-14T21:22:49.547Z,47.92
2023-05-14T21:25:55.023Z,47.60
2023-05-14T21:28:59.314Z,47.84
2023-05-14T21:32:03.449Z,48.07
2023-05-14T21:35:08.425Z,48.06
2023-05-14T21:38:12.614Z,47.86
2023-05-14T21:41:16.917Z,48.00
2023-05-14T21:44:22.202Z,48.28
2023-05-14T21:47:27.165Z,48.30
2023-05-14T21:50:31.277Z,47.78
2023-05-14T21:53:35.232Z,48.08
2023-05-14T21:56:39.256Z,48.13
2023-05-14T21:59:43.268Z,48.10
2023-05-14T22:02:47.327Z,47.71
2023-05-14T22:05:51.913Z,47.86
2023-05-14T22:08:55.924Z,47.85
2023-05-14T22:11:59.942Z,47.78
2023-05-14T22:15:05.427Z,47.71
2023-05-14T22:18:09.415Z,47.46
2023-05-14T22:21:13.743Z,47.65
2023-05-14T22:24:17.740Z,47.93
2023-05-14T22:27:21.756Z,47.97
2023-05-14T22:30:25.776Z,48.06
2023-05-14T22:33:30.099Z,47.97
2023-05-14T22:36:34.126Z,48.03
2023-05-14T22:39:38.139Z,47.76
2023-05-14T22:42:42.161Z,47.88
2023-05-14T22:45:46.161Z,47.92
2023-05-14T22:48:50.149Z,47.83
2023-05-14T22:51:54.510Z,47.71
2023-05-14T22:54:58.519Z,47.58
2023-05-14T22:58:02.849Z,47.41
2023-05-14T23:01:06.862Z,47.38
2023-05-14T23:04:10.882Z,47.30
2023-05-14T23:07:15.657Z,47.38
2023-05-14T23:10:19.834Z,47.36
2023-05-14T23:13:23.945Z,47.50
2023-05-14T23:16:28.163Z,47.02
2023-05-14T23:19:32.207Z,47.06
2023-05-14T23:22:36.306Z,47.27
2023-05-14T23:25:40.297Z,46.95
2023-05-14T23:28:44.293Z,46.87
2023-05-14T23:31:48.236Z,46.71
2023-05-14T23:34:52.270Z,46.98
2023-05-14T23:37:56.375Z,47.17
2023-05-14T23:41:00.396Z,46.88
2023-05-14T23:44:04.712Z,46.85
2023-05-14T23:47:08.930Z,46.59
2023-05-14T23:50:12.897Z,46.59
2023-05-14T23:53:17.436Z,46.81
2023-05-14T23:56:22.506Z,46.49
2023-05-14T23:59:26.739Z,46.68
